Time;durP1;ratioP1;P1;durP2;ratioP2;P2;SDS_P1;SDS_P2;PMS_P1;PMS_P2;Temp;Humidity;BMP_temperature;BMP_pressure;BME280_temperature;BME280_humidity;BME280_pressure;Samples;Min_cycle;Max_cycle;Signal;HPM_P1;HPM_P2
2023/05/09 00:01:38;;;;;;;8.45;3.20;;;11.80;72.70;;;;;;5048620;28;20051;-68
2023/05/09 00:04:04;;;;;;;6.10;3.80;;;11.70;72.80;;;;;;5036804;28;20068;-66
2023/05/09 00:06:31;;;;;;;7.03;3.97;;;11.70;72.90;;;;;;5047124;28;20421;-67
2023/05/09 00:08:57;;;;;;;4.95;3.60;;;11.70;73.00;;;;;;5044996;28;20091;-67
2023/05/09 00:11:22;;;;;;;4.78;3.40;;;11.70;73.10;;;;;;5046092;28;20490;-67
2023/05/09 00:13:49;;;;;;;9.23;3.92;;;11.70;73.20;;;;;;5041578;28;20033;-67
2023/05/09 00:16:16;;;;;;;6.28;3.28;;;11.70;73.30;;;;;;5044726;28;20044;-67
2023/05/09 00:18:42;;;;;;;6.80;4.30;;;11.70;73.50;;;;;;5045705;28;20045;-67
2023/05/09 00:21:09;;;;;;;4.93;3.30;;;11.60;73.50;;;;;;5044330;28;20123;-67
2023/05/09 00:23:36;;;;;;;5.32;3.35;;;11.60;73.60;;;;;;5036882;28;20605;-68
2023/05/09 00:26:01;;;;;;;6.60;3.80;;;11.60;73.60;;;;;;5042701;28;20083;-67
2023/05/09 00:28:27;;;;;;;7.68;4.03;;;11.60;73.70;;;;;;5029076;28;20080;-68
2023/05/09 00:30:52;;;;;;;4.85;3.60;;;11.60;73.70;;;;;;5049229;28;20033;-68
2023/05/09 00:33:19;;;;;;;6.50;3.92;;;11.60;73.80;;;;;;5053231;28;20080;-68
2023/05/09 00:35:45;;;;;;;5.32;3.80;;;11.50;73.90;;;;;;5043663;28;20667;-68
2023/05/09 00:38:11;;;;;;;5.22;3.40;;;11.50;73.80;;;;;;5039409;28;20080;-68
2023/05/09 00:40:36;;;;;;;5.25;3.65;;;11.50;74.00;;;;;;5042313;28;20386;-69
2023/05/09 00:43:03;;;;;;;7.00;2.90;;;11.50;74.00;;;;;;5042226;28;20036;-69
2023/05/09 00:45:29;;;;;;;7.05;4.07;;;11.50;74.00;;;;;;5033412;28;20106;-70
2023/05/09 00:47:56;;;;;;;5.35;3.67;;;11.50;74.20;;;;;;5049232;28;20041;-69
2023/05/09 00:50:22;;;;;;;7.05;4.32;;;11.50;74.10;;;;;;5051010;28;20032;-69
2023/05/09 00:52:49;;;;;;;5.93;3.35;;;11.50;74.10;;;;;;5050076;28;20036;-69
2023/05/09 00:55:15;;;;;;;5.65;3.60;;;11.50;74.10;;;;;;5050426;28;20037;-68
2023/05/09 00:57:41;;;;;;;4.30;3.00;;;11.50;74.10;;;;;;5046516;28;20040;-67
2023/05/09 01:00:11;;;;;;;5.35;3.10;;;11.50;74.20;;;;;;5047915;28;20128;-67
2023/05/09 01:02:41;;;;;;;6.53;3.97;;;11.50;74.10;;;;;;5044077;28;20053;-67
2023/05/09 01:05:07;;;;;;;6.10;3.38;;;11.50;74.00;;;;;;5047242;28;20572;-69
2023/05/09 01:08:12;;;;;;;5.32;3.35;;;11.40;74.10;;;;;;5046276;28;20111;-68
2023/05/09 01:10:53;;;;;;;5.40;3.30;;;11.50;74.10;;;;;;5041796;28;20382;-67
2023/05/09 01:13:21;;;;;;;5.53;3.20;;;11.40;73.90;;;;;;5049767;28;20048;-67
2023/05/09 01:15:58;;;;;;;4.65;2.95;;;11.50;74.00;;;;;;5047649;28;20045;-67
2023/05/09 01:18:45;;;;;;;5.15;3.15;;;11.40;74.00;;;;;;5048792;28;20128;-67
2023/05/09 01:21:18;;;;;;;6.10;2.80;;;11.40;74.10;;;;;;5038752;28;20069;-68
2023/05/09 01:23:43;;;;;;;4.57;3.10;;;11.40;74.10;;;;;;5048651;28;20033;-67
2023/05/09 01:26:47;;;;;;;4.10;2.72;;;11.40;74.00;;;;;;5046913;28;20090;-68
2023/05/09 01:29:31;;;;;;;5.72;3.35;;;11.40;74.00;;;;;;5037481;28;20462;-67
2023/05/09 01:32:00;;;;;;;5.07;2.95;;;11.40;73.90;;;;;;5035224;28;20029;-67
2023/05/09 01:34:27;;;;;;;5.95;3.42;;;11.40;73.90;;;;;;5037795;28;20529;-70
2023/05/09 01:37:00;;;;;;;6.43;3.13;;;11.30;73.90;;;;;;5048293;28;20036;-67
2023/05/09 01:39:27;;;;;;;4.85;3.08;;;11.40;74.20;;;;;;5040145;28;20050;-67
2023/05/09 01:41:55;;;;;;;4.47;2.63;;;11.30;73.90;;;;;;5043503;28;20037;-67
2023/05/09 01:44:22;;;;;;;6.50;3.35;;;11.30;73.80;;;;;;5049601;28;20061;-67
2023/05/09 01:46:51;;;;;;;3.85;2.50;;;11.30;73.90;;;;;;5047711;28;20057;-67
2023/05/09 01:49:18;;;;;;;5.00;2.90;;;11.40;74.00;;;;;;5048962;28;20025;-67
2023/05/09 01:51:44;;;;;;;4.65;2.50;;;11.30;73.80;;;;;;5047816;28;21960;-67
2023/05/09 01:54:11;;;;;;;8.57;2.97;;;11.30;73.80;;;;;;5067754;28;20044;-67
2023/05/09 01:56:37;;;;;;;3.58;2.50;;;11.30;73.70;;;;;;5063521;28;20047;-67
2023/05/09 01:59:05;;;;;;;4.53;2.72;;;11.30;73.50;;;;;;5078173;28;20053;-67
2023/05/09 02:01:31;;;;;;;4.35;3.00;;;11.20;73.50;;;;;;5076199;28;20047;-68
2023/05/09 02:03:58;;;;;;;6.93;3.00;;;11.30;73.30;;;;;;5069585;28;20048;-69
2023/05/09 02:06:28;;;;;;;4.50;2.65;;;11.30;73.30;;;;;;5069871;28;20048;-69
2023/05/09 02:08:54;;;;;;;4.82;2.60;;;11.30;73.20;;;;;;5059806;28;20044;-69
2023/05/09 02:11:21;;;;;;;6.78;3.22;;;11.20;73.00;;;;;;5069541;28;20457;-68
2023/05/09 02:13:47;;;;;;;4.50;2.88;;;11.20;72.90;;;;;;5071510;28;20406;-68
2023/05/09 02:16:12;;;;;;;5.13;2.88;;;11.20;72.70;;;;;;5070163;28;20044;-68
2023/05/09 02:18:38;;;;;;;4.78;2.45;;;11.20;72.60;;;;;;5073349;28;20053;-68
2023/05/09 02:21:05;;;;;;;3.95;2.40;;;11.20;72.60;;;;;;5054856;28;20037;-68
2023/05/09 02:23:30;;;;;;;3.58;2.28;;;11.20;73.20;;;;;;5075322;28;20124;-68
2023/05/09 02:25:56;;;;;;;8.50;2.95;;;11.20;72.50;;;;;;5071152;28;20454;-68
2023/05/09 02:28:23;;;;;;;4.10;2.65;;;11.20;72.50;;;;;;5074739;28;20041;-68
2023/05/09 02:30:51;;;;;;;5.43;2.50;;;11.10;72.40;;;;;;5052046;28;20091;-67
2023/05/09 02:33:17;;;;;;;3.60;2.78;;;11.10;72.40;;;;;;5064093;28;20504;-68
2023/05/09 02:35:46;;;;;;;5.63;2.90;;;11.10;72.30;;;;;;5051775;28;20071;-68
2023/05/09 02:38:13;;;;;;;5.78;2.45;;;11.10;72.20;;;;;;5069285;28;20047;-68
2023/05/09 02:40:43;;;;;;;4.18;2.72;;;11.10;72.20;;;;;;5067315;28;20064;-69
2023/05/09 02:43:09;;;;;;;5.07;2.80;;;11.10;72.10;;;;;;5079760;28;20059;-68
2023/05/09 02:45:34;;;;;;;4.70;2.92;;;11.10;72.10;;;;;;5068051;28;20485;-68
2023/05/09 02:48:00;;;;;;;6.45;3.03;;;11.10;72.20;;;;;;5052758;28;20044;-68
2023/05/09 02:50:26;;;;;;;4.22;2.72;;;11.10;72.30;;;;;;5068042;28;20460;-67
2023/05/09 02:52:52;;;;;;;3.97;2.45;;;11.10;72.20;;;;;;5065687;28;20103;-68
2023/05/09 02:55:17;;;;;;;3.53;2.13;;;11.10;72.10;;;;;;5050003;28;20508;-68
2023/05/09 02:57:43;;;;;;;4.20;2.92;;;11.10;72.20;;;;;;5043062;28;20053;-68
2023/05/09 03:00:09;;;;;;;4.65;3.15;;;11.10;72.20;;;;;;5045063;28;20033;-69
2023/05/09 03:02:35;;;;;;;4.20;2.78;;;11.00;72.10;;;;;;5058181;28;20045;-68
2023/05/09 03:05:01;;;;;;;3.83;2.60;;;11.00;72.60;;;;;;5046419;28;20103;-68
2023/05/09 03:07:28;;;;;;;4.78;3.10;;;11.00;72.50;;;;;;5050058;28;20045;-67
2023/05/09 03:09:54;;;;;;;3.67;2.70;;;11.00;72.20;;;;;;5047497;28;20086;-67
2023/05/09 03:12:19;;;;;;;4.78;2.70;;;11.00;72.20;;;;;;5048563;28;20044;-67
2023/05/09 03:14:46;;;;;;;5.95;2.95;;;11.00;72.40;;;;;;5047958;28;20094;-67
2023/05/09 03:17:11;;;;;;;4.78;2.97;;;11.00;72.30;;;;;;5031345;28;20045;-67
2023/05/09 03:19:37;;;;;;;6.13;2.58;;;11.00;72.20;;;;;;5039136;28;20053;-67
2023/05/09 03:22:03;;;;;;;5.28;2.83;;;11.00;72.20;;;;;;5046871;28;20044;-67
2023/05/09 03:24:28;;;;;;;4.57;3.10;;;11.00;72.20;;;;;;5042380;28;20045;-67
2023/05/09 03:26:54;;;;;;;4.80;2.78;;;10.90;72.20;;;;;;5048981;28;20397;-67
2023/05/09 03:29:20;;;;;;;7.28;3.65;;;10.90;72.20;;;;;;5041891;28;20037;-70
2023/05/09 03:31:45;;;;;;;4.35;3.22;;;10.90;72.40;;;;;;5022387;28;20029;-70
2023/05/09 03:34:13;;;;;;;6.78;2.75;;;10.90;72.40;;;;;;5045871;28;20139;-72
2023/05/09 03:36:41;;;;;;;4.30;3.00;;;10.90;72.50;;;;;;5037829;28;20072;-70
2023/05/09 03:39:07;;;;;;;4.07;2.67;;;10.90;72.50;;;;;;5039043;28;20056;-70
2023/05/09 03:41:34;;;;;;;5.32;3.03;;;10.80;72.60;;;;;;5042433;28;20104;-71
2023/05/09 03:44:01;;;;;;;5.43;2.97;;;10.90;72.60;;;;;;5045513;28;20049;-70
2023/05/09 03:46:26;;;;;;;4.38;2.92;;;10.90;72.70;;;;;;5043778;28;20037;-71
2023/05/09 03:48:52;;;;;;;5.35;2.60;;;10.90;72.80;;;;;;5042789;28;20485;-72
2023/05/09 03:51:17;;;;;;;4.13;2.70;;;10.90;72.80;;;;;;5035664;28;20108;-71
2023/05/09 03:53:46;;;;;;;5.78;3.30;;;10.90;72.80;;;;;;5050831;28;20465;-71
2023/05/09 03:56:11;;;;;;;8.75;3.63;;;10.90;72.90;;;;;;5083091;28;20036;-71
2023/05/09 03:58:37;;;;;;;5.07;2.85;;;10.90;73.20;;;;;;5088978;28;20051;-71
2023/05/09 04:01:03;;;;;;;4.50;3.17;;;10.80;72.90;;;;;;5086832;28;20138;-71
2023/05/09 04:03:28;;;;;;;7.55;3.00;;;10.80;73.00;;;;;;5087354;28;20075;-70
2023/05/09 04:05:54;;;;;;;5.05;2.85;;;10.90;73.10;;;;;;5088255;28;20392;-68
2023/05/09 04:08:20;;;;;;;4.25;2.78;;;10.90;73.10;;;;;;5085398;28;20059;-69
2023/05/09 04:10:48;;;;;;;4.40;2.83;;;10.90;73.10;;;;;;5056140;28;20083;-69
2023/05/09 04:13:13;;;;;;;4.05;2.67;;;10.90;73.10;;;;;;5081195;28;20441;-70
2023/05/09 04:15:39;;;;;;;3.65;2.50;;;10.90;73.20;;;;;;5082013;28;20091;-70
2023/05/09 04:18:05;;;;;;;7.53;3.17;;;10.90;73.30;;;;;;5067414;28;20048;-70
2023/05/09 04:20:31;;;;;;;7.43;3.67;;;10.90;73.40;;;;;;5080377;28;20086;-70
2023/05/09 04:22:57;;;;;;;4.65;3.13;;;10.90;73.50;;;;;;5084675;28;20032;-70
2023/05/09 04:25:23;;;;;;;5.13;3.00;;;11.00;73.50;;;;;;5085712;28;20044;-70
2023/05/09 04:27:49;;;;;;;5.90;2.80;;;11.00;73.60;;;;;;5088088;28;20039;-69
2023/05/09 04:30:15;;;;;;;6.18;3.33;;;11.00;73.60;;;;;;5055312;28;20024;-69
2023/05/09 04:32:44;;;;;;;6.18;3.63;;;11.00;73.70;;;;;;5087757;28;20035;-70
2023/05/09 04:35:11;;;;;;;5.35;3.40;;;11.00;73.70;;;;;;5079059;28;20083;-70
2023/05/09 04:37:37;;;;;;;7.45;3.17;;;11.00;73.80;;;;;;5088545;28;20381;-70
2023/05/09 04:40:04;;;;;;;4.70;2.95;;;11.00;73.80;;;;;;5084265;28;20393;-70
2023/05/09 04:42:32;;;;;;;6.68;3.50;;;11.00;73.70;;;;;;5085782;28;20090;-70
2023/05/09 04:44:58;;;;;;;5.47;2.97;;;11.10;73.70;;;;;;5085786;28;20040;-71
2023/05/09 04:47:24;;;;;;;4.60;3.00;;;11.10;73.90;;;;;;5089227;28;20059;-71
2023/05/09 04:49:50;;;;;;;6.95;3.70;;;11.10;74.00;;;;;;5087909;28;20493;-70
2023/05/09 04:52:16;;;;;;;5.60;3.17;;;11.10;73.90;;;;;;5087850;28;20543;-70
2023/05/09 04:54:41;;;;;;;4.50;2.78;;;11.10;73.90;;;;;;5087409;28;20566;-70
2023/05/09 04:57:07;;;;;;;5.57;3.20;;;11.10;74.00;;;;;;5087922;28;20115;-70
2023/05/09 04:59:33;;;;;;;5.20;3.33;;;11.10;74.00;;;;;;5085601;28;20048;-70
2023/05/09 05:01:59;;;;;;;4.50;3.03;;;11.20;74.00;;;;;;5081262;28;20439;-70
2023/05/09 05:04:25;;;;;;;8.07;3.10;;;11.20;74.00;;;;;;5084873;28;20051;-70
2023/05/09 05:06:50;;;;;;;7.18;3.25;;;11.20;74.00;;;;;;5087415;28;20299;-69
2023/05/09 05:09:16;;;;;;;3.95;3.10;;;11.30;74.00;;;;;;5084628;28;20032;-69
2023/05/09 05:11:41;;;;;;;5.30;3.22;;;11.30;74.10;;;;;;5070662;28;20081;-69
2023/05/09 05:14:07;;;;;;;6.88;3.38;;;11.30;74.20;;;;;;5084661;28;20044;-73
2023/05/09 05:16:33;;;;;;;5.57;3.22;;;11.40;74.10;;;;;;5089865;28;20039;-70
2023/05/09 05:18:58;;;;;;;4.78;3.20;;;11.40;74.00;;;;;;5088286;28;20135;-70
2023/05/09 05:21:24;;;;;;;4.88;3.20;;;11.40;74.10;;;;;;5091483;28;20393;-70
2023/05/09 05:23:49;;;;;;;5.22;3.00;;;11.50;74.20;;;;;;5090342;28;20411;-70
2023/05/09 05:26:15;;;;;;;3.95;2.65;;;11.50;74.20;;;;;;5073686;28;20036;-70
2023/05/09 05:28:40;;;;;;;4.85;3.20;;;11.60;74.10;;;;;;5090993;28;20090;-71
2023/05/09 05:31:06;;;;;;;5.07;2.88;;;11.50;73.90;;;;;;5090201;28;20047;-70
2023/05/09 05:33:32;;;;;;;5.03;3.13;;;11.60;73.90;;;;;;5087142;28;20032;-70
2023/05/09 05:35:57;;;;;;;4.45;2.90;;;11.70;74.00;;;;;;5070139;28;20481;-71
2023/05/09 05:38:23;;;;;;;4.60;2.65;;;11.70;73.80;;;;;;5089211;28;20035;-71
2023/05/09 05:40:48;;;;;;;5.20;2.78;;;11.80;73.80;;;;;;5087630;28;20028;-70
2023/05/09 05:43:14;;;;;;;4.25;2.70;;;11.80;73.80;;;;;;5089952;28;20055;-73
2023/05/09 05:45:40;;;;;;;4.88;2.75;;;11.80;73.60;;;;;;5086286;28;20070;-69
2023/05/09 05:48:05;;;;;;;5.40;2.95;;;11.90;73.70;;;;;;5087992;28;20032;-68
2023/05/09 05:50:31;;;;;;;6.65;3.30;;;12.00;73.80;;;;;;5091282;28;20072;-68
2023/05/09 05:52:56;;;;;;;6.47;3.17;;;12.00;73.50;;;;;;5091522;28;20039;-69
2023/05/09 05:55:22;;;;;;;3.45;2.50;;;12.10;74.00;;;;;;5089645;28;20282;-69
2023/05/09 05:57:48;;;;;;;5.25;3.22;;;12.10;73.70;;;;;;5090824;28;20142;-68
2023/05/09 06:00:14;;;;;;;6.63;2.72;;;12.10;73.10;;;;;;5087334;28;20049;-68
2023/05/09 06:02:43;;;;;;;6.15;3.45;;;12.20;73.00;;;;;;5084026;28;20028;-68
2023/05/09 06:05:10;;;;;;;4.30;3.30;;;12.30;73.00;;;;;;5088265;28;20126;-67
2023/05/09 06:07:35;;;;;;;4.20;2.95;;;12.30;72.90;;;;;;5086655;28;20065;-67
2023/05/09 06:10:01;;;;;;;4.70;3.22;;;12.30;73.00;;;;;;5087545;28;20044;-67
2023/05/09 06:12:26;;;;;;;5.97;3.33;;;12.30;72.60;;;;;;5091405;28;20507;-67
2023/05/09 06:14:52;;;;;;;6.03;3.05;;;12.40;72.60;;;;;;5089302;28;20047;-65
2023/05/09 06:17:18;;;;;;;6.90;2.80;;;12.40;72.60;;;;;;5088520;28;20040;-68
2023/05/09 06:19:43;;;;;;;5.50;2.78;;;12.50;72.60;;;;;;5086549;28;20169;-67
2023/05/09 06:22:10;;;;;;;4.40;2.67;;;12.60;72.70;;;;;;5083945;28;20032;-67
2023/05/09 06:24:35;;;;;;;4.60;2.50;;;12.60;72.60;;;;;;5088124;28;20040;-68
2023/05/09 06:27:01;;;;;;;12.00;3.83;;;12.70;72.30;;;;;;5080140;28;20036;-68
2023/05/09 06:29:27;;;;;;;7.22;3.33;;;12.80;72.20;;;;;;5087750;28;20043;-68
2023/05/09 06:31:52;;;;;;;4.95;2.90;;;12.80;72.00;;;;;;5084108;28;20028;-68
2023/05/09 06:34:18;;;;;;;8.70;2.70;;;12.80;72.50;;;;;;5078375;28;20043;-68
2023/05/09 06:36:44;;;;;;;4.50;2.60;;;12.90;72.10;;;;;;5083392;28;20054;-69
2023/05/09 06:39:09;;;;;;;4.78;2.40;;;13.00;72.00;;;;;;5087149;28;20071;-69
2023/05/09 06:41:35;;;;;;;8.52;3.20;;;13.00;71.70;;;;;;5082122;28;20094;-68
2023/05/09 06:44:01;;;;;;;6.68;3.40;;;13.10;71.50;;;;;;5088553;28;20590;-69
2023/05/09 06:46:27;;;;;;;5.75;2.80;;;13.10;71.30;;;;;;5076408;28;20036;-70
2023/05/09 06:48:53;;;;;;;6.90;3.60;;;13.10;70.80;;;;;;5075409;28;20047;-71
2023/05/09 06:51:18;;;;;;;4.18;2.78;;;13.10;70.70;;;;;;5089445;28;20036;-71
2023/05/09 06:53:44;;;;;;;7.70;3.00;;;13.20;70.60;;;;;;5084263;28;20107;-71
2023/05/09 06:56:10;;;;;;;5.50;2.90;;;13.20;70.20;;;;;;5085188;28;20507;-71
2023/05/09 06:58:36;;;;;;;5.30;3.00;;;13.20;70.20;;;;;;5086652;28;20044;-72
2023/05/09 07:01:03;;;;;;;7.68;3.08;;;13.30;70.20;;;;;;5086442;28;20048;-70
2023/05/09 07:03:29;;;;;;;5.30;3.38;;;13.30;70.10;;;;;;5082683;28;20044;-70
2023/05/09 07:05:57;;;;;;;6.35;3.10;;;13.40;70.00;;;;;;5089075;28;20109;-69
2023/05/09 07:08:23;;;;;;;10.27;3.38;;;13.40;69.80;;;;;;5088187;28;20040;-69
2023/05/09 07:10:49;;;;;;;10.07;3.25;;;13.40;69.60;;;;;;5088403;28;20071;-70
2023/05/09 07:13:15;;;;;;;4.57;2.85;;;13.50;69.40;;;;;;5084551;28;20074;-70
2023/05/09 07:15:41;;;;;;;8.85;3.05;;;13.60;69.30;;;;;;5085110;28;20032;-69
2023/05/09 07:18:07;;;;;;;9.40;2.97;;;13.60;69.20;;;;;;5084560;28;20036;-66
2023/05/09 07:20:32;;;;;;;5.65;3.28;;;13.60;69.00;;;;;;5084364;28;20040;-70
2023/05/09 07:22:58;;;;;;;5.35;2.85;;;13.70;68.90;;;;;;5067713;28;20055;-70
2023/05/09 07:25:24;;;;;;;7.72;2.90;;;13.70;69.10;;;;;;5083225;28;20033;-70
2023/05/09 07:27:50;;;;;;;4.22;2.92;;;13.80;69.00;;;;;;5070080;28;20556;-70
2023/05/09 07:30:15;;;;;;;4.95;3.05;;;13.90;68.50;;;;;;5081306;28;20119;-70
2023/05/09 07:32:41;;;;;;;6.30;2.95;;;13.90;67.90;;;;;;5084340;28;20124;-70
2023/05/09 07:35:07;;;;;;;4.43;2.35;;;13.90;67.60;;;;;;5069610;28;20079;-70
2023/05/09 07:37:33;;;;;;;5.40;2.60;;;14.00;67.40;;;;;;5083422;28;20043;-70
2023/05/09 07:39:59;;;;;;;7.53;3.00;;;14.10;67.30;;;;;;5083040;28;20043;-74
2023/05/09 07:42:25;;;;;;;4.95;3.15;;;14.20;67.20;;;;;;5086587;28;20389;-75
2023/05/09 07:44:50;;;;;;;5.72;2.75;;;14.20;67.10;;;;;;5086207;28;20055;-75
2023/05/09 07:47:16;;;;;;;5.03;2.67;;;14.30;66.70;;;;;;5086061;28;20048;-73
2023/05/09 07:49:44;;;;;;;4.07;2.50;;;14.30;66.70;;;;;;5087251;28;20031;-73
2023/05/09 07:52:09;;;;;;;5.07;2.58;;;14.40;66.70;;;;;;5077784;28;20048;-74
2023/05/09 07:54:35;;;;;;;5.72;3.45;;;14.40;66.50;;;;;;5078731;28;20067;-74
2023/05/09 07:57:01;;;;;;;8.55;3.40;;;14.50;66.40;;;;;;5086806;28;20043;-74
2023/05/09 07:59:26;;;;;;;6.00;2.88;;;14.60;66.40;;;;;;5089473;28;20071;-73
2023/05/09 08:01:52;;;;;;;4.55;2.30;;;14.60;65.80;;;;;;5087307;28;20135;-74
2023/05/09 08:04:17;;;;;;;5.15;2.63;;;14.70;65.60;;;;;;5086568;28;20199;-74
2023/05/09 08:06:43;;;;;;;7.18;2.67;;;14.80;65.30;;;;;;5053730;28;20043;-73
2023/05/09 08:09:10;;;;;;;8.13;3.42;;;14.80;64.70;;;;;;5069810;28;20114;-68
2023/05/09 08:11:35;;;;;;;5.63;2.60;;;14.80;64.40;;;;;;5073112;28;20436;-69
2023/05/09 08:14:01;;;;;;;7.65;2.88;;;14.90;64.00;;;;;;5089287;28;20492;-69
2023/05/09 08:16:27;;;;;;;6.07;2.60;;;14.90;63.70;;;;;;5084883;28;20090;-68
2023/05/09 08:18:53;;;;;;;6.32;2.95;;;15.00;63.80;;;;;;5088399;28;20048;-68
2023/05/09 08:21:20;;;;;;;5.70;2.30;;;15.00;63.50;;;;;;5068272;28;20085;-69
2023/05/09 08:23:45;;;;;;;4.80;2.50;;;15.10;63.20;;;;;;5074030;28;20040;-69
2023/05/09 08:26:11;;;;;;;4.13;2.60;;;15.20;63.00;;;;;;5069495;28;20036;-68
2023/05/09 08:28:37;;;;;;;4.60;3.40;;;15.20;63.20;;;;;;5083594;28;20035;-68
2023/05/09 08:31:02;;;;;;;7.00;2.72;;;15.30;62.90;;;;;;5077572;28;20099;-68
2023/05/09 08:33:28;;;;;;;3.83;2.30;;;15.30;62.90;;;;;;5068474;28;20051;-68
2023/05/09 08:35:55;;;;;;;3.95;2.70;;;15.40;62.40;;;;;;5075291;28;20370;-69
2023/05/09 08:38:21;;;;;;;6.95;2.15;;;15.50;62.50;;;;;;5082424;28;20048;-69
2023/05/09 08:40:47;;;;;;;3.83;2.35;;;15.50;62.10;;;;;;5087004;28;20036;-68
2023/05/09 08:43:16;;;;;;;7.13;2.30;;;15.60;61.80;;;;;;5085121;28;20130;-69
2023/05/09 08:45:47;;;;;;;4.55;2.50;;;15.70;61.70;;;;;;5086438;28;20040;-68
2023/05/09 08:48:15;;;;;;;4.55;2.40;;;15.70;61.40;;;;;;5066481;28;20032;-69
2023/05/09 08:50:41;;;;;;;4.43;2.45;;;15.80;61.70;;;;;;5082508;28;20675;-69
2023/05/09 08:53:07;;;;;;;6.18;2.90;;;15.90;61.50;;;;;;5081677;28;20098;-68
2023/05/09 08:55:34;;;;;;;5.55;2.50;;;15.90;61.80;;;;;;5092602;28;20040;-69
2023/05/09 08:57:59;;;;;;;5.72;2.80;;;16.00;61.70;;;;;;5087858;28;20048;-68
2023/05/09 09:00:26;;;;;;;4.93;2.60;;;16.00;61.30;;;;;;5075292;28;20037;-68
2023/05/09 09:02:52;;;;;;;3.20;2.42;;;16.10;61.30;;;;;;5072325;28;20492;-69
2023/05/09 09:05:18;;;;;;;6.72;3.17;;;16.10;61.30;;;;;;5091776;28;20104;-74
2023/05/09 09:07:44;;;;;;;3.53;2.30;;;16.20;61.10;;;;;;5081577;28;20572;-75
2023/05/09 09:10:12;;;;;;;7.07;3.00;;;16.30;60.90;;;;;;5084456;28;20039;-75
2023/05/09 09:12:38;;;;;;;4.00;2.65;;;16.30;60.40;;;;;;5091431;28;20035;-75
2023/05/09 09:15:08;;;;;;;4.75;2.72;;;16.40;60.70;;;;;;5090807;28;20036;-75
2023/05/09 09:17:36;;;;;;;4.35;2.58;;;16.40;60.60;;;;;;5088766;28;20036;-69
2023/05/09 09:20:04;;;;;;;5.20;2.65;;;16.40;59.50;;;;;;5087635;28;20044;-69
2023/05/09 09:22:34;;;;;;;12.68;4.03;;;16.40;59.50;;;;;;5090826;28;20040;-68
2023/05/09 09:25:01;;;;;;;5.28;2.63;;;16.50;59.40;;;;;;5088510;28;20051;-67
2023/05/09 09:27:27;;;;;;;7.18;2.95;;;16.60;59.20;;;;;;5088811;28;20028;-68
2023/05/09 09:29:53;;;;;;;7.35;2.58;;;16.60;59.00;;;;;;5090442;28;20043;-68
2023/05/09 09:32:18;;;;;;;4.07;2.30;;;16.70;59.10;;;;;;5065962;28;20040;-68
2023/05/09 09:34:48;;;;;;;7.18;2.53;;;16.70;58.90;;;;;;5092077;28;20028;-68
2023/05/09 09:37:22;;;;;;;3.13;2.30;;;16.80;59.10;;;;;;5091266;28;20040;-69
2023/05/09 09:39:54;;;;;;;4.22;2.33;;;16.90;58.90;;;;;;5074205;28;20059;-68
2023/05/09 09:42:22;;;;;;;4.68;2.53;;;17.00;58.90;;;;;;5089732;28;20036;-68
2023/05/09 09:45:01;;;;;;;5.32;2.17;;;17.10;59.00;;;;;;5070030;28;20508;-67
2023/05/09 09:47:32;;;;;;;5.78;2.45;;;17.20;58.90;;;;;;5090052;28;20493;-69
2023/05/09 09:50:12;;;;;;;5.00;1.95;;;17.30;58.30;;;;;;5090307;28;20044;-67
2023/05/09 09:52:49;;;;;;;4.88;2.17;;;17.40;58.10;;;;;;5075482;28;20060;-67
2023/05/09 09:55:15;;;;;;;3.83;2.13;;;17.40;57.80;;;;;;5071521;28;20040;-68
2023/05/09 09:57:43;;;;;;;4.32;2.47;;;17.50;57.20;;;;;;5072912;28;20071;-68
2023/05/09 10:00:10;;;;;;;10.05;2.97;;;17.60;57.40;;;;;;5088922;28;20036;-69
2023/05/09 10:02:55;;;;;;;4.88;2.30;;;17.60;56.20;;;;;;5089926;28;20101;-68
2023/05/09 10:05:25;;;;;;;;;;;17.70;56.40;;;;;;5088416;28;20036;-68
2023/05/09 10:07:55;;;;;;;3.85;2.42;;;17.70;57.30;;;;;;5084193;28;20442;-68
2023/05/09 10:10:22;;;;;;;3.75;2.40;;;17.70;56.60;;;;;;5088954;28;20060;-69
2023/05/09 10:12:49;;;;;;;4.20;2.97;;;17.80;56.10;;;;;;5065348;28;20047;-70
2023/05/09 10:15:19;;;;;;;5.93;2.47;;;17.80;56.10;;;;;;5077827;28;20040;-69
2023/05/09 10:17:44;;;;;;;4.93;2.50;;;17.90;55.90;;;;;;5079394;28;20058;-68
2023/05/09 10:20:11;;;;;;;5.03;1.85;;;17.90;55.40;;;;;;5083224;28;20040;-69
2023/05/09 10:22:39;;;;;;;3.33;2.08;;;18.00;55.70;;;;;;5088128;28;20456;-68
2023/05/09 10:25:12;;;;;;;4.50;2.42;;;18.00;55.70;;;;;;5079281;28;20399;-68
2023/05/09 10:27:43;;;;;;;3.08;1.83;;;18.10;55.80;;;;;;5083793;28;20032;-67
2023/05/09 10:30:17;;;;;;;3.40;2.17;;;18.10;55.80;;;;;;5078914;28;20040;-69
2023/05/09 10:32:47;;;;;;;5.28;2.55;;;18.20;55.40;;;;;;5082146;28;20036;-68
2023/05/09 10:35:15;;;;;;;3.63;1.90;;;18.20;55.30;;;;;;5084297;28;20405;-68
2023/05/09 10:37:42;;;;;;;5.50;2.38;;;18.20;54.90;;;;;;5081270;28;20123;-67
2023/05/09 10:40:13;;;;;;;4.18;2.30;;;18.20;54.50;;;;;;5087059;28;20043;-68
2023/05/09 10:42:42;;;;;;;5.68;2.30;;;18.20;54.20;;;;;;5081863;28;20044;-69
2023/05/09 10:45:10;;;;;;;3.17;2.30;;;18.30;54.30;;;;;;5081089;28;20042;-70
2023/05/09 10:47:38;;;;;;;4.60;2.13;;;18.30;53.90;;;;;;5083363;28;20086;-69
2023/05/09 10:50:06;;;;;;;4.22;2.58;;;18.30;52.80;;;;;;5087281;28;20381;-69
2023/05/09 10:52:33;;;;;;;5.13;1.95;;;18.30;53.30;;;;;;5089285;28;20036;-70
2023/05/09 10:55:00;;;;;;;3.97;1.88;;;18.30;53.70;;;;;;5083178;28;20093;-69
2023/05/09 10:57:28;;;;;;;4.15;2.85;;;18.40;53.80;;;;;;5082214;28;20028;-70
2023/05/09 10:59:55;;;;;;;3.63;2.20;;;18.40;53.40;;;;;;5069049;28;20117;-70
2023/05/09 11:02:23;;;;;;;5.38;2.17;;;18.40;53.20;;;;;;5084658;28;20226;-70
2023/05/09 11:05:17;;;;;;;3.67;2.30;;;18.40;53.20;;;;;;5081403;28;20044;-70
2023/05/09 11:07:43;;;;;;;3.72;2.10;;;18.50;53.20;;;;;;5085817;28;20060;-71
2023/05/09 11:10:16;;;;;;;8.20;2.50;;;18.60;53.50;;;;;;5069184;28;20127;-72
2023/05/09 11:12:59;;;;;;;6.88;1.90;;;18.60;53.60;;;;;;5071211;28;20043;-71
2023/05/09 11:15:26;;;;;;;3.55;2.35;;;18.60;53.80;;;;;;5078604;28;20047;-72
2023/05/09 11:18:10;;;;;;;5.35;2.10;;;18.70;53.60;;;;;;5088641;28;20043;-72
2023/05/09 11:20:42;;;;;;;4.00;2.30;;;18.70;53.50;;;;;;5081875;28;20060;-67
2023/05/09 11:23:10;;;;;;;5.38;2.20;;;18.80;53.20;;;;;;5084619;28;20044;-69
2023/05/09 11:25:38;;;;;;;4.68;2.40;;;18.80;53.00;;;;;;5082125;28;20048;-71
2023/05/09 11:28:05;;;;;;;3.10;1.90;;;18.90;53.20;;;;;;5086764;28;20124;-71
2023/05/09 11:30:42;;;;;;;3.22;2.17;;;18.90;52.80;;;;;;5080353;28;20044;-70
2023/05/09 11:33:26;;;;;;;6.00;2.55;;;18.90;53.10;;;;;;5084293;28;20477;-70
2023/05/09 11:36:24;;;;;;;6.45;2.42;;;19.00;53.30;;;;;;5084787;28;20047;-70
2023/05/09 11:39:04;;;;;;;3.15;2.20;;;19.00;53.40;;;;;;5076912;28;20105;-71
2023/05/09 11:41:30;;;;;;;3.88;2.20;;;19.10;53.20;;;;;;5087125;28;20086;-70
2023/05/09 11:43:58;;;;;;;4.20;2.10;;;19.10;53.60;;;;;;5070020;28;20044;-71
2023/05/09 11:46:25;;;;;;;11.80;2.63;;;19.20;53.50;;;;;;5086193;28;20036;-71
2023/05/09 11:48:52;;;;;;;4.68;2.67;;;19.20;52.90;;;;;;5067884;28;20558;-71
2023/05/09 11:51:18;;;;;;;6.43;2.47;;;19.20;51.80;;;;;;5084510;28;20083;-70
2023/05/09 11:53:48;;;;;;;4.85;2.20;;;19.20;52.20;;;;;;5083345;28;20051;-70
2023/05/09 11:56:15;;;;;;;4.47;2.38;;;19.20;51.70;;;;;;5088640;28;20040;-71
2023/05/09 11:58:41;;;;;;;7.65;2.20;;;19.20;51.70;;;;;;5086354;28;20046;-71
2023/05/09 12:01:07;;;;;;;3.53;1.80;;;19.30;51.50;;;;;;5086960;28;20093;-71
2023/05/09 12:03:32;;;;;;;8.25;2.85;;;19.30;51.40;;;;;;5087660;28;20481;-69
2023/05/09 12:05:58;;;;;;;5.15;1.98;;;19.30;51.50;;;;;;5087337;28;20040;-69
2023/05/09 12:08:25;;;;;;;5.82;3.08;;;19.40;51.80;;;;;;5083420;28;20119;-70
2023/05/09 12:10:51;;;;;;;5.35;2.13;;;19.40;51.80;;;;;;5088142;28;20077;-71
2023/05/09 12:13:18;;;;;;;9.27;2.38;;;19.50;52.00;;;;;;5086544;28;20115;-70
2023/05/09 12:15:43;;;;;;;4.70;2.35;;;19.50;52.40;;;;;;5066547;28;20043;-69
2023/05/09 12:18:09;;;;;;;2.83;1.75;;;19.50;52.20;;;;;;5070242;28;20051;-70
2023/05/09 12:20:51;;;;;;;3.60;1.67;;;19.60;52.20;;;;;;5082976;28;20062;-70
2023/05/09 12:23:17;;;;;;;5.28;2.33;;;19.70;52.60;;;;;;5075341;28;20104;-69
2023/05/09 12:25:47;;;;;;;3.95;1.98;;;19.80;52.50;;;;;;5082459;28;20085;-70
2023/05/09 12:28:13;;;;;;;6.40;1.98;;;19.80;52.60;;;;;;5090692;28;20575;-71
2023/05/09 12:30:39;;;;;;;5.03;2.63;;;19.90;52.20;;;;;;5091048;28;20063;-70
2023/05/09 12:33:09;;;;;;;3.67;1.73;;;19.90;51.70;;;;;;5091074;28;20072;-71
2023/05/09 12:35:38;;;;;;;9.32;2.53;;;20.00;51.70;;;;;;5064730;28;20036;-70
2023/05/09 12:38:03;;;;;;;4.63;2.08;;;20.00;51.20;;;;;;5085814;28;20063;-70
2023/05/09 12:40:29;;;;;;;3.80;2.05;;;20.00;51.40;;;;;;5083919;28;20036;-71
2023/05/09 12:42:59;;;;;;;5.03;1.90;;;20.00;51.40;;;;;;5090093;28;20052;-70
2023/05/09 12:45:26;;;;;;;4.45;2.03;;;20.10;51.70;;;;;;5089613;28;20068;-71
2023/05/09 12:47:52;;;;;;;4.25;1.92;;;20.20;51.30;;;;;;5072849;28;20085;-70
2023/05/09 12:50:18;;;;;;;5.78;2.08;;;20.20;51.40;;;;;;5089456;28;20086;-70